createdAt,value
2022-07-28T00:00:48.446Z,13.49
2022-07-28T00:03:15.137Z,13.43
2022-07-28T00:05:41.779Z,13.47
2022-07-28T00:08:10.276Z,13.48
2022-07-28T00:10:37.016Z,13.47
2022-07-28T00:13:06.770Z,13.38
2022-07-28T00:15:33.951Z,13.22
2022-07-28T00:18:01.108Z,13.22
2022-07-28T00:20:28.132Z,13.15
2022-07-28T00:22:54.908Z,13.19
2022-07-28T00:25:21.607Z,13.15
2022-07-28T00:27:48.516Z,13.04
2022-07-28T00:30:15.113Z,13.10
2022-07-28T00:32:41.987Z,13.00
2022-07-28T00:35:08.929Z,13.01
2022-07-28T00:37:35.666Z,12.95
2022-07-28T00:40:07.594Z,13.02
2022-07-28T00:42:34.167Z,13.07
2022-07-28T00:45:00.815Z,13.04
2022-07-28T00:47:27.422Z,13.03
2022-07-28T00:50:01.497Z,12.98
2022-07-28T00:52:28.253Z,13.05
2022-07-28T00:54:54.908Z,12.93
2022-07-28T00:57:21.985Z,12.90
2022-07-28T00:59:48.593Z,12.92
2022-07-28T01:02:16.069Z,12.89
2022-07-28T01:04:42.920Z,12.82
2022-07-28T01:07:19.591Z,12.80
2022-07-28T01:10:01.358Z,12.86
2022-07-28T01:12:37.826Z,12.78
2022-07-28T01:15:36.732Z,12.67
2022-07-28T01:18:11.426Z,12.78
2022-07-28T01:21:02.278Z,12.68
2022-07-28T01:23:31.776Z,12.70
2022-07-28T01:26:04.270Z,12.64
2022-07-28T01:29:01.484Z,12.59
2022-07-28T01:31:51.261Z,12.56
2022-07-28T01:34:33.321Z,12.58
2022-07-28T01:37:06.730Z,12.50
2022-07-28T01:39:35.974Z,12.45
2022-07-28T01:42:04.809Z,12.51
2022-07-28T01:44:32.982Z,12.54
2022-07-28T01:47:00.896Z,12.62
2022-07-28T01:49:29.376Z,12.66
2022-07-28T01:51:57.579Z,12.72
2022-07-28T01:54:28.483Z,12.72
2022-07-28T01:56:56.727Z,12.71
2022-07-28T01:59:26.173Z,12.60
2022-07-28T02:01:53.696Z,12.61
2022-07-28T02:04:23.724Z,12.63
2022-07-28T02:06:52.891Z,12.52
2022-07-28T02:09:21.844Z,12.56
2022-07-28T02:11:52.119Z,12.47
2022-07-28T02:14:24.103Z,12.44
2022-07-28T02:16:57.902Z,12.45
2022-07-28T02:19:25.932Z,12.37
2022-07-28T02:21:54.396Z,12.33
2022-07-28T02:24:26.459Z,12.32
2022-07-28T02:26:59.795Z,12.20
2022-07-28T02:29:49.836Z,12.23
2022-07-28T02:32:46.270Z,12.23
2022-07-28T02:35:54.482Z,12.21
2022-07-28T02:38:30.694Z,12.15
2022-07-28T02:41:01.266Z,12.22
2022-07-28T02:43:49.841Z,12.22
2022-07-28T02:46:20.794Z,12.24
2022-07-28T02:48:52.553Z,12.08
2022-07-28T02:51:23.577Z,12.03
2022-07-28T02:53:51.122Z,11.95
2022-07-28T02:56:18.348Z,12.08
2022-07-28T02:58:46.499Z,12.06
2022-07-28T03:01:13.911Z,12.02
2022-07-28T03:03:44.038Z,11.88
2022-07-28T03:06:11.037Z,11.96
2022-07-28T03:08:37.960Z,11.84
2022-07-28T03:11:09.457Z,11.86
2022-07-28T03:13:36.189Z,11.88
2022-07-28T03:16:02.796Z,11.79
2022-07-28T03:18:29.479Z,11.76
2022-07-28T03:20:56.898Z,11.75
2022-07-28T03:23:30.083Z,11.82
2022-07-28T03:26:02.975Z,11.78
2022-07-28T03:28:32.316Z,11.67
2022-07-28T03:31:07.789Z,11.65
2022-07-28T03:33:34.525Z,11.71
2022-07-28T03:36:05.819Z,11.70
2022-07-28T03:38:37.586Z,11.60
2022-07-28T03:41:08.065Z,11.52
2022-07-28T03:43:35.302Z,11.62
2022-07-28T03:46:01.994Z,11.58
2022-07-28T03:48:32.329Z,11.60
2022-07-28T03:50:59.335Z,11.45
2022-07-28T03:53:28.221Z,11.56
2022-07-28T03:55:54.971Z,11.56
2022-07-28T03:58:28.711Z,11.55
2022-07-28T04:00:55.839Z,11.49
2022-07-28T04:03:36.584Z,11.64
2022-07-28T04:06:09.521Z,11.66
2022-07-28T04:08:36.131Z,11.62
2022-07-28T04:11:02.736Z,11.54
2022-07-28T04:13:32.036Z,11.56
2022-07-28T04:15:59.629Z,11.51
2022-07-28T04:18:26.215Z,11.50
2022-07-28T04:20:53.104Z,11.51
2022-07-28T04:23:21.041Z,11.58
2022-07-28T04:25:48.083Z,11.64
2022-07-28T04:28:15.766Z,11.68
2022-07-28T04:30:44.264Z,11.67
2022-07-28T04:33:12.226Z,11.84
2022-07-28T04:35:38.894Z,11.87
2022-07-28T04:38:06.020Z,11.90
2022-07-28T04:40:34.491Z,11.93
2022-07-28T04:43:01.449Z,12.06
2022-07-28T04:45:28.169Z,12.13
2022-07-28T04:47:54.750Z,12.20
2022-07-28T04:50:21.651Z,12.32
2022-07-28T04:52:57.572Z,12.58
2022-07-28T04:55:25.412Z,12.70
2022-07-28T04:57:52.046Z,12.72
2022-07-28T05:00:19.853Z,12.84
2022-07-28T05:02:49.175Z,13.12
2022-07-28T05:05:15.974Z,13.15
2022-07-28T05:07:42.667Z,13.10
2022-07-28T05:10:11.347Z,13.13
2022-07-28T05:12:38.285Z,13.21
2022-07-28T05:15:06.036Z,13.35
2022-07-28T05:17:32.770Z,13.42
2022-07-28T05:19:59.588Z,13.43
2022-07-28T05:22:26.843Z,13.47
2022-07-28T05:24:53.434Z,13.55
2022-07-28T05:27:20.464Z,13.70
2022-07-28T05:29:48.071Z,13.74
2022-07-28T05:32:17.174Z,13.73
2022-07-28T05:34:45.154Z,13.92
2022-07-28T05:37:12.185Z,13.97
2022-07-28T05:39:39.107Z,14.19
2022-07-28T05:42:06.117Z,14.21
2022-07-28T05:44:37.830Z,14.27
2022-07-28T05:47:05.624Z,14.29
2022-07-28T05:49:32.502Z,14.50
2022-07-28T05:51:59.096Z,14.51
2022-07-28T05:54:25.926Z,14.69
2022-07-28T05:56:52.693Z,14.66
2022-07-28T05:59:19.607Z,14.74
2022-07-28T06:01:46.730Z,14.76
2022-07-28T06:04:29.440Z,14.84
2022-07-28T06:06:56.386Z,14.93
2022-07-28T06:09:23.107Z,15.04
2022-07-28T06:11:52.605Z,15.12
2022-07-28T06:14:19.524Z,15.34
2022-07-28T06:16:51.271Z,15.26
2022-07-28T06:19:18.860Z,15.55
2022-07-28T06:21:45.476Z,15.56
2022-07-28T06:24:12.437Z,15.48
2022-07-28T06:26:44.265Z,15.67
2022-07-28T06:29:11.800Z,16.07
2022-07-28T06:31:39.126Z,16.38
2022-07-28T06:34:06.160Z,15.98
2022-07-28T06:36:32.760Z,15.88
2022-07-28T06:38:59.419Z,15.99
2022-07-28T06:41:26.071Z,16.43
2022-07-28T06:43:52.741Z,16.51
2022-07-28T06:46:19.986Z,16.00
2022-07-28T06:48:46.809Z,16.68
2022-07-28T06:51:15.413Z,16.83
2022-07-28T06:53:42.006Z,16.72
2022-07-28T06:56:10.212Z,16.58
2022-07-28T06:58:40.593Z,16.92
2022-07-28T07:01:09.969Z,17.27
2022-07-28T07:03:36.802Z,16.92
2022-07-28T07:06:03.834Z,18.33
2022-07-28T07:08:30.539Z,18.18
2022-07-28T07:10:57.320Z,18.81
2022-07-28T07:13:24.933Z,18.13
2022-07-28T07:15:51.683Z,18.74
2022-07-28T07:18:18.349Z,18.50
2022-07-28T07:20:45.095Z,19.04
2022-07-28T07:23:11.759Z,19.32
2022-07-28T07:25:38.452Z,19.58
2022-07-28T07:28:05.140Z,19.63
2022-07-28T07:30:31.718Z,19.10
2022-07-28T07:32:58.335Z,19.98
2022-07-28T07:35:25.068Z,21.03
2022-07-28T07:37:51.654Z,21.10
2022-07-28T07:40:19.440Z,20.93
2022-07-28T07:42:46.018Z,22.13
2022-07-28T07:45:12.616Z,22.57
2022-07-28T07:47:39.307Z,22.48
2022-07-28T07:50:06.570Z,22.18
2022-07-28T07:52:33.286Z,22.80
2022-07-28T07:54:59.941Z,21.80
2022-07-28T07:57:26.557Z,22.20
2022-07-28T07:59:53.206Z,22.28
2022-07-28T08:02:19.838Z,22.69
2022-07-28T08:04:46.593Z,22.95
2022-07-28T08:07:14.475Z,23.08
2022-07-28T08:09:41.082Z,22.16
2022-07-28T08:12:08.105Z,21.69
2022-07-28T08:14:34.703Z,22.54
2022-07-28T08:17:02.019Z,22.29
2022-07-28T08:19:28.664Z,23.58
2022-07-28T08:21:58.023Z,22.24
2022-07-28T08:24:27.623Z,21.54
2022-07-28T08:27:03.642Z,23.14
2022-07-28T08:29:30.496Z,21.70
2022-07-28T08:31:57.858Z,21.73
2022-07-28T08:34:31.201Z,22.15
2022-07-28T08:37:01.687Z,22.12
2022-07-28T08:39:28.345Z,21.62
2022-07-28T08:41:58.974Z,21.52
2022-07-28T08:44:33.245Z,23.90
2022-07-28T08:47:00.147Z,23.06
2022-07-28T08:49:28.091Z,23.44
2022-07-28T08:51:59.304Z,25.90
2022-07-28T08:54:28.334Z,25.19
2022-07-28T08:56:57.013Z,24.84
2022-07-28T08:59:24.536Z,23.13
2022-07-28T09:01:57.450Z,23.71
2022-07-28T09:04:27.520Z,24.53
2022-07-28T09:06:55.160Z,24.84
2022-07-28T09:09:22.503Z,23.37
2022-07-28T09:11:49.156Z,25.12
2022-07-28T09:14:16.317Z,26.11
2022-07-28T09:16:43.194Z,25.67
2022-07-28T09:19:09.888Z,25.69
2022-07-28T09:21:36.824Z,25.83
2022-07-28T09:24:03.636Z,26.39
2022-07-28T09:26:30.208Z,25.46
2022-07-28T09:28:59.149Z,25.68
2022-07-28T09:31:28.580Z,25.99
2022-07-28T09:34:02.230Z,26.41
2022-07-28T09:36:40.140Z,26.04
2022-07-28T09:39:07.169Z,26.35
2022-07-28T09:41:50.094Z,24.59
2022-07-28T09:44:21.567Z,25.79
2022-07-28T09:46:49.092Z,26.69
2022-07-28T09:49:15.891Z,26.15
2022-07-28T09:51:42.867Z,27.03
2022-07-28T09:54:13.583Z,26.78
2022-07-28T09:56:44.131Z,27.36
2022-07-28T09:59:12.847Z,26.77
2022-07-28T10:01:59.777Z,27.37
2022-07-28T10:04:33.681Z,27.33
2022-07-28T10:07:09.923Z,25.66
2022-07-28T10:09:37.683Z,26.73
2022-07-28T10:12:30.750Z,27.62
2022-07-28T10:15:37.662Z,27.13
2022-07-28T10:18:05.517Z,24.87
2022-07-28T10:20:33.918Z,26.19
2022-07-28T10:23:06.161Z,27.64
2022-07-28T10:25:34.651Z,26.35
2022-07-28T10:28:03.057Z,26.25
2022-07-28T10:30:31.709Z,26.82
2022-07-28T10:32:59.697Z,27.12
2022-07-28T10:35:27.413Z,25.93
2022-07-28T10:38:03.855Z,25.60
2022-07-28T10:40:35.821Z,25.82
2022-07-28T10:43:02.882Z,26.40
2022-07-28T10:45:55.134Z,27.45
2022-07-28T10:48:16.836Z,26.23
2022-07-28T10:50:44.590Z,26.18
2022-07-28T10:53:12.762Z,27.28
2022-07-28T10:55:49.346Z,28.09
2022-07-28T10:58:37.978Z,27.24
2022-07-28T11:01:06.358Z,27.55
2022-07-28T11:03:37.443Z,28.48
2022-07-28T11:06:37.037Z,29.71
2022-07-28T11:09:16.020Z,27.99
2022-07-28T11:11:43.599Z,28.36
2022-07-28T11:14:30.864Z,28.64
2022-07-28T11:17:00.426Z,28.23
2022-07-28T11:19:42.333Z,28.08
2022-07-28T11:22:22.384Z,29.08
2022-07-28T11:25:18.928Z,29.09
2022-07-28T11:27:51.541Z,28.77
2022-07-28T11:30:18.773Z,29.10
2022-07-28T11:33:11.765Z,26.23
2022-07-28T11:35:41.083Z,27.75
2022-07-28T11:38:09.702Z,25.83
2022-07-28T11:40:52.740Z,26.67
2022-07-28T11:43:36.553Z,25.70
2022-07-28T11:46:10.491Z,27.40
2022-07-28T11:48:42.945Z,26.97
2022-07-28T11:51:11.508Z,27.46
2022-07-28T11:53:51.173Z,26.56
2022-07-28T11:56:29.198Z,26.67
2022-07-28T11:59:04.503Z,26.22
2022-07-28T12:01:32.340Z,26.97
2022-07-28T12:04:13.554Z,26.37
2022-07-28T12:06:43.034Z,26.23
2022-07-28T12:09:11.461Z,26.67
2022-07-28T12:11:43.888Z,25.91
2022-07-28T12:14:15.790Z,26.46
2022-07-28T12:16:45.323Z,26.72
2022-07-28T12:19:15.589Z,27.10
2022-07-28T12:21:50.810Z,27.09
2022-07-28T12:24:28.638Z,27.12
2022-07-28T12:26:57.919Z,26.82
2022-07-28T12:29:32.266Z,25.60
2022-07-28T12:32:06.304Z,24.89
2022-07-28T12:34:39.906Z,26.12
2022-07-28T12:37:10.008Z,26.74
2022-07-28T12:39:39.769Z,26.64
2022-07-28T12:42:08.724Z,27.13
2022-07-28T12:44:41.448Z,27.28
2022-07-28T12:47:12.184Z,27.32
2022-07-28T12:49:43.761Z,27.23
2022-07-28T12:52:22.197Z,27.20
2022-07-28T12:54:55.370Z,26.88
2022-07-28T12:57:50.446Z,27.08
2022-07-28T13:00:23.156Z,26.90
2022-07-28T13:02:51.891Z,27.43
2022-07-28T13:05:30.713Z,27.24
2022-07-28T13:08:02.254Z,26.74
2022-07-28T13:10:30.240Z,27.30
2022-07-28T13:13:02.927Z,26.69
2022-07-28T13:15:29.722Z,27.36
2022-07-28T13:17:57.232Z,27.50
2022-07-28T13:20:24.948Z,27.66
2022-07-28T13:22:52.685Z,27.33
2022-07-28T13:25:20.260Z,27.64
2022-07-28T13:27:52.222Z,27.83
2022-07-28T13:30:21.504Z,27.40
2022-07-28T13:32:49.323Z,27.72
2022-07-28T13:35:16.064Z,28.29
2022-07-28T13:37:46.056Z,28.22
2022-07-28T13:40:13.014Z,28.41
2022-07-28T13:42:39.615Z,29.00
2022-07-28T13:45:06.664Z,28.38
2022-07-28T13:47:35.558Z,28.79
2022-07-28T13:50:06.029Z,29.03
2022-07-28T13:52:35.204Z,28.48
2022-07-28T13:55:06.259Z,28.62
2022-07-28T13:57:36.330Z,29.34
2022-07-28T14:00:07.451Z,29.92
2022-07-28T14:02:34.642Z,29.74
2022-07-28T14:05:01.717Z,29.60
2022-07-28T14:07:28.690Z,28.72
2022-07-28T14:09:55.266Z,28.61
2022-07-28T14:12:21.851Z,28.46
2022-07-28T14:14:49.052Z,27.89
2022-07-28T14:17:42.571Z,27.08
2022-07-28T14:20:04.625Z,27.32
2022-07-28T14:22:31.298Z,27.90
2022-07-28T14:24:57.880Z,28.00
2022-07-28T14:27:28.921Z,27.08
2022-07-28T14:29:56.101Z,27.03
2022-07-28T14:32:23.314Z,27.92
2022-07-28T14:34:50.573Z,27.63
2022-07-28T14:37:17.677Z,27.21
2022-07-28T14:39:44.423Z,27.54
2022-07-28T14:42:11.514Z,27.79
2022-07-28T14:44:38.241Z,28.02
2022-07-28T14:47:06.599Z,27.43
2022-07-28T14:49:35.145Z,27.26
2022-07-28T14:52:02.574Z,27.55
2022-07-28T14:54:29.991Z,27.66
2022-07-28T14:56:56.756Z,27.32
2022-07-28T14:59:23.631Z,26.75
2022-07-28T15:01:50.632Z,27.32
2022-07-28T15:04:18.622Z,27.00
2022-07-28T15:06:45.922Z,27.56
2022-07-28T15:09:13.387Z,27.23
2022-07-28T15:11:41.331Z,26.89
2022-07-28T15:14:08.112Z,27.64
2022-07-28T15:16:34.871Z,27.43
2022-07-28T15:19:02.516Z,27.26
2022-07-28T15:21:34.390Z,27.36
2022-07-28T15:24:03.072Z,27.34
2022-07-28T15:26:29.799Z,26.99
2022-07-28T15:28:56.410Z,27.23
2022-07-28T15:31:25.579Z,27.25
2022-07-28T15:33:55.620Z,26.88
2022-07-28T15:36:25.631Z,26.56
2022-07-28T15:38:53.841Z,26.84
2022-07-28T15:41:20.715Z,26.92
2022-07-28T15:43:47.672Z,26.61
2022-07-28T15:46:14.748Z,26.82
2022-07-28T15:48:43.562Z,26.71
2022-07-28T15:51:11.198Z,26.80
2022-07-28T15:53:38.673Z,26.80
2022-07-28T15:56:05.627Z,26.79
2022-07-28T15:58:32.246Z,26.46
2022-07-28T16:01:01.028Z,26.80
2022-07-28T16:03:29.545Z,26.47
2022-07-28T16:05:56.321Z,26.18
2022-07-28T16:08:23.560Z,26.43
2022-07-28T16:10:52.683Z,26.30
2022-07-28T16:13:36.222Z,26.17
2022-07-28T16:16:09.217Z,26.33
2022-07-28T16:18:37.561Z,26.09
2022-07-28T16:21:05.498Z,26.10
2022-07-28T16:23:32.287Z,26.07
2022-07-28T16:25:59.355Z,26.10
2022-07-28T16:28:26.660Z,26.21
2022-07-28T16:30:54.922Z,25.99
2022-07-28T16:33:21.576Z,26.03
2022-07-28T16:35:48.382Z,25.80
2022-07-28T16:38:15.001Z,25.70
2022-07-28T16:40:41.760Z,25.98
2022-07-28T16:43:08.339Z,25.67
2022-07-28T16:45:35.773Z,25.43
2022-07-28T16:48:03.970Z,25.66
2022-07-28T16:50:31.852Z,25.71
2022-07-28T16:52:59.730Z,25.61
2022-07-28T16:55:26.861Z,25.47
2022-07-28T16:57:54.021Z,25.57
2022-07-28T17:00:21.585Z,25.63
2022-07-28T17:02:48.330Z,25.48
2022-07-28T17:05:15.025Z,25.59
2022-07-28T17:07:45.201Z,25.51
2022-07-28T17:10:14.854Z,25.26
2022-07-28T17:12:41.955Z,25.39
2022-07-28T17:15:20.007Z,25.37
2022-07-28T17:17:52.516Z,25.43
2022-07-28T17:20:20.178Z,25.36
2022-07-28T17:22:46.762Z,25.19
2022-07-28T17:25:47.633Z,25.21
2022-07-28T17:28:00.347Z,25.14
2022-07-28T17:30:29.919Z,25.09
2022-07-28T17:32:59.231Z,25.08
2022-07-28T17:35:31.544Z,25.03
2022-07-28T17:38:01.465Z,24.91
2022-07-28T17:40:28.093Z,24.80
2022-07-28T17:42:54.722Z,24.78
2022-07-28T17:45:21.836Z,24.92
2022-07-28T17:47:48.444Z,24.62
2022-07-28T17:50:15.781Z,24.61
2022-07-28T17:52:43.694Z,24.54
2022-07-28T17:55:29.470Z,24.47
2022-07-28T17:58:28.192Z,24.45
2022-07-28T18:01:09.337Z,24.28
2022-07-28T18:03:56.590Z,24.23
2022-07-28T18:06:34.869Z,24.17
2022-07-28T18:09:08.344Z,24.18
2022-07-28T18:11:57.245Z,24.04
2022-07-28T18:14:27.383Z,23.92
2022-07-28T18:16:54.919Z,23.88
2022-07-28T18:19:21.846Z,23.93
2022-07-28T18:21:49.138Z,23.80
2022-07-28T18:24:16.355Z,23.72
2022-07-28T18:26:43.709Z,23.68
2022-07-28T18:29:10.309Z,23.58
2022-07-28T18:31:43.867Z,23.50
2022-07-28T18:34:13.508Z,23.47
2022-07-28T18:36:40.392Z,23.43
2022-07-28T18:39:07.037Z,23.38
2022-07-28T18:41:34.540Z,23.32
2022-07-28T18:44:14.083Z,23.26
2022-07-28T18:46:41.037Z,23.26
2022-07-28T18:49:07.862Z,23.14
2022-07-28T18:51:34.567Z,23.12
2022-07-28T18:54:01.196Z,23.16
2022-07-28T18:56:27.769Z,23.10
2022-07-28T18:58:56.135Z,23.05
2022-07-28T19:01:23.214Z,23.01
2022-07-28T19:03:49.863Z,22.94
2022-07-28T19:06:16.565Z,22.88
2022-07-28T19:08:43.395Z,22.79
2022-07-28T19:11:10.449Z,22.65
2022-07-28T19:13:37.211Z,22.61
2022-07-28T19:16:04.254Z,22.63
2022-07-28T19:18:30.897Z,22.52
2022-07-28T19:20:57.594Z,22.51
2022-07-28T19:23:24.506Z,22.47
2022-07-28T19:25:51.326Z,22.36
2022-07-28T19:28:18.130Z,22.26
2022-07-28T19:30:45.111Z,22.31
2022-07-28T19:33:17.231Z,22.20
2022-07-28T19:35:45.607Z,22.13
2022-07-28T19:38:12.664Z,22.05
2022-07-28T19:40:41.430Z,22.03
2022-07-28T19:43:08.072Z,21.94
2022-07-28T19:45:37.319Z,21.93
2022-07-28T19:48:04.265Z,21.93
2022-07-28T19:50:31.236Z,21.85
2022-07-28T19:52:58.167Z,21.81
2022-07-28T19:55:27.009Z,21.66
2022-07-28T19:57:55.841Z,21.66
2022-07-28T20:00:22.486Z,21.59
2022-07-28T20:02:49.169Z,21.51
2022-07-28T20:05:16.263Z,21.49
2022-07-28T20:07:42.911Z,21.38
2022-07-28T20:10:09.587Z,21.37
2022-07-28T20:12:37.262Z,21.22
2022-07-28T20:15:07.452Z,21.22
2022-07-28T20:17:41.385Z,21.23
2022-07-28T20:20:09.545Z,21.16
2022-07-28T20:22:36.440Z,21.08
2022-07-28T20:25:03.922Z,21.03
2022-07-28T20:27:30.596Z,20.96
2022-07-28T20:29:59.223Z,20.90
2022-07-28T20:32:26.074Z,20.95
2022-07-28T20:34:52.951Z,20.94
2022-07-28T20:37:36.155Z,20.86
2022-07-28T20:40:06.342Z,20.89
2022-07-28T20:42:33.086Z,20.88
2022-07-28T20:44:59.701Z,20.89
2022-07-28T20:47:27.994Z,20.91
2022-07-28T20:49:55.405Z,20.88
2022-07-28T20:52:23.500Z,20.85
2022-07-28T20:54:54.195Z,20.82
2022-07-28T20:57:21.394Z,20.83
2022-07-28T20:59:48.997Z,20.69
2022-07-28T21:02:15.790Z,20.69
2022-07-28T21:04:42.714Z,20.63
2022-07-28T21:07:10.824Z,20.54
2022-07-28T21:09:37.644Z,20.46
2022-07-28T21:12:04.727Z,20.39
2022-07-28T21:14:32.690Z,20.55
2022-07-28T21:16:59.621Z,20.54
2022-07-28T21:19:26.346Z,20.42
2022-07-28T21:21:52.919Z,20.47
2022-07-28T21:24:19.632Z,20.40
2022-07-28T21:26:46.419Z,20.32
2022-07-28T21:32:03.950Z,20.34
2022-07-28T21:34:34.351Z,20.27
2022-07-28T21:37:05.313Z,20.20
2022-07-28T21:39:32.031Z,20.24
2022-07-28T21:41:59.099Z,20.29
2022-07-28T21:44:25.972Z,20.29
2022-07-28T21:46:52.593Z,20.24
2022-07-28T21:49:19.234Z,20.24
2022-07-28T21:51:46.457Z,20.21
2022-07-28T21:54:13.835Z,20.18
2022-07-28T21:56:40.712Z,20.13
2022-07-28T21:59:07.312Z,19.99
2022-07-28T22:01:34.019Z,19.93
2022-07-28T22:04:00.679Z,19.85
2022-07-28T22:06:27.329Z,19.88
2022-07-28T22:08:54.253Z,19.87
2022-07-28T22:11:22.396Z,19.78
2022-07-28T22:13:49.523Z,19.75
2022-07-28T22:16:16.175Z,19.71
2022-07-28T22:18:42.876Z,19.63
2022-07-28T22:21:09.490Z,19.56
2022-07-28T22:23:36.107Z,19.61
2022-07-28T22:26:03.179Z,19.59
2022-07-28T22:28:30.674Z,19.53
2022-07-28T22:31:09.519Z,19.47
2022-07-28T22:33:38.283Z,19.49
2022-07-28T22:36:08.984Z,19.41
2022-07-28T22:38:36.594Z,19.49
2022-07-28T22:41:03.658Z,19.45
2022-07-28T22:43:33.395Z,19.48
2022-07-28T22:46:00.181Z,19.53
2022-07-28T22:48:26.913Z,19.52
2022-07-28T22:50:53.518Z,19.53
2022-07-28T22:53:20.114Z,19.54
2022-07-28T22:55:46.723Z,19.50
2022-07-28T22:58:13.316Z,19.43
2022-07-28T23:00:40.017Z,19.41
2022-07-28T23:03:06.760Z,19.42
2022-07-28T23:05:35.259Z,19.38
2022-07-28T23:08:01.877Z,19.27
2022-07-28T23:10:29.643Z,19.46
2022-07-28T23:12:58.673Z,19.56
2022-07-28T23:15:39.385Z,19.60
2022-07-28T23:18:13.718Z,19.60
2022-07-28T23:20:41.415Z,19.62
2022-07-28T23:23:08.286Z,19.58
2022-07-28T23:25:42.644Z,19.64
2022-07-28T23:28:09.275Z,19.68
2022-07-28T23:30:35.909Z,19.64
2022-07-28T23:33:02.604Z,19.65
2022-07-28T23:35:29.388Z,19.78
2022-07-28T23:37:56.184Z,19.78
2022-07-28T23:40:23.181Z,19.77
2022-07-28T23:42:49.872Z,19.87
2022-07-28T23:45:16.494Z,19.82
2022-07-28T23:47:43.086Z,19.98
2022-07-28T23:50:09.995Z,19.83
2022-07-28T23:52:36.620Z,19.85
2022-07-28T23:55:03.497Z,19.90
2022-07-28T23:57:31.055Z,19.84
2022-07-28T23:59:59.285Z,19.88
